Latest Coastal Weather Observations for Mallacoota

IDV60701

Issued at 9:45 pm EST Wednesday 17 September 2014 (issued every 10 minutes, with the page automatically refreshed every 10 minutes)

About coastal observations | Map of coastal stations | Coastal observations for VIC | Marine services | Other Formats
Station Details ID: 084084 Name: MALLACOOTA Lat: -37.60 Lon: 149.73 Height: 22.0 m
Data from the previous 72 hours. | See also: Recent months at Mallacoota
Date/Time
EST
Temp

°C
Wind Pressure Rain
since 9am
mm
Weather Cloud Vis
km
Sea
Height
m
Swell
Dir
 
Speed
knots
Gust
knots
hPa Trend Height
m
Period
s
Dir
17/09:30pm 9.6 WSW 11 22 1013.3 - 1.2 - - - - - - -
17/09:00pm 9.8 W 9 17 1013.1 - 1.2 - - - - - - -
17/08:30pm 9.9 WSW 10 19 1012.8 - 1.2 - - - - - - -
17/08:00pm 9.4 W 10 21 1012.7 - 1.2 - - - - - - -
17/07:30pm 9.0 WSW 13 23 1012.4 - 1.2 - - - - - - -
17/07:00pm 8.9 WSW 11 20 1012.4 - 1.2 - - - - - - -
17/06:41pm 8.9 SW 15 42 1012.4 - 1.0 - - - - - - -
17/06:30pm 10.3 SW 10 21 1011.9 - 0.8 - - - - - - -
17/06:21pm 10.3 SW 15 27 1011.7 - 0.8 - - - - - - -
17/06:00pm 10.3 WSW 10 17 1011.5 - 0.8 - - - - - - -
17/05:30pm 11.3 WSW 15 25 1010.9 - 0.8 - - - - - - -
17/05:29pm 11.5 WSW 15 25 1010.9 - 0.8 - - - - - - -
17/05:00pm 11.1 WSW 8 11 1010.2 - 0.8 - - - - - - -
17/04:30pm 11.0 SW 11 18 1009.6 - 0.8 - - - - - - -
17/04:00pm 12.6 SW 13 22 1009.4 - 0.0 - - - - - - -
17/03:30pm 13.9 WSW 11 18 1008.9 - 0.0 - - - - - - -
17/03:00pm 13.8 WSW 10 21 1008.5 - 0.0 - - - - - - -
17/02:30pm 15.4 SW 12 20 1008.1 - 0.0 - - - - - - -
17/02:00pm 16.6 SW 11 18 1007.7 - 0.0 - - - - - - -
17/01:30pm 16.5 WSW 11 20 1007.8 - 0.0 - - - - - - -
17/01:00pm 17.2 SW 13 23 1007.7 - 0.0 - - - - - - -
17/12:30pm 16.5 W 12 22 1007.8 - 0.0 - - - - - - -
17/12:00pm 15.7 W 8 15 1008.3 - 0.0 - - - - - - -
17/11:30am 14.8 W 11 22 1008.7 - 0.0 - - - - - - -
17/11:00am 15.4 WSW 12 19 1009.0 - 0.0 - - - - - - -
17/10:30am 15.6 W 10 17 1009.2 - 0.0 - - - - - - -
17/10:00am 15.1 WSW 10 17 1009.5 - 0.0 - - - - - - -
17/09:30am 13.3 WSW 9 15 1009.9 - 0.0 - - - - - - -
17/09:00am 13.2 W 8 13 1010.2 - 4.2 - - - - - - -
17/08:30am 12.7 W 9 16 1010.4 - 4.2 - - - - - - -
17/08:00am 11.9 W 8 19 1010.3 - 4.2 - - - - - - -
17/07:30am 11.8 W 7 13 1010.1 - 4.2 - - - - - - -
17/07:00am 11.3 W 8 17 1009.9 - 4.2 - - - - - - -
17/06:30am 10.6 W 9 15 1009.8 - 4.2 - - - - - - -
17/06:00am 10.5 W 8 17 1009.5 - 4.2 - - - - - - -
17/05:30am 10.7 W 8 12 1009.4 - 4.2 - - - - - - -
17/05:00am 10.8 W 6 10 1009.1 - 4.2 - - - - - - -
17/04:30am 11.2 W 9 16 1008.7 - 4.2 - - - - - - -
17/04:00am 11.5 WSW 10 16 1008.5 - 4.2 - - - - - - -
17/03:30am 11.9 W 9 16 1008.3 - 4.2 - - - - - - -
17/03:00am 12.0 W 10 19 1008.1 - 4.2 - - - - - - -
17/02:30am 12.2 W 11 20 1008.3 - 4.2 - - - - - - -
17/02:00am 12.4 WSW 9 17 1008.3 - 4.2 - - - - - - -
17/01:30am 12.6 WSW 8 19 1008.2 - 4.2 - - - - - - -
17/01:00am 12.6 W 9 16 1008.5 - 4.2 - - - - - - -
17/12:30am 12.8 W 9 14 1008.5 - 4.2 - - - - - - -
17/12:00am 12.6 W 10 19 1008.2 - 4.2 - - - - - - -
 
Date/Time
EST
Temp

°C
Wind Pressure Rain
since 9am
mm
Weather Cloud Vis
km
Sea
Height
m
Swell
Dir
 
Speed
knots
Gust
knots
hPa Trend Height
m
Period
s
Dir
16/11:30pm 12.9 W 8 12 1008.3 - 4.2 - - - - - - -
16/11:00pm 13.0 WSW 9 15 1008.5 - 4.2 - - - - - - -
16/10:30pm 12.7 WSW 8 15 1008.7 - 4.2 - - - - - - -
16/10:00pm 13.0 WSW 9 16 1008.6 - 4.2 - - - - - - -
16/09:30pm 13.2 WSW 9 18 1008.4 - 4.2 - - - - - - -
16/09:00pm 12.8 W 3 6 1008.2 - 4.2 - - - - - - -
16/08:30pm 12.2 N 4 5 1008.1 - 4.0 - - - - - - -
16/08:00pm 12.3 NNW 4 5 1007.8 - 4.0 - - - - - - -
16/07:30pm 12.7 WNW 4 6 1007.9 - 4.0 - - - - - - -
16/07:00pm 12.7 W 4 9 1007.4 - 4.0 - - - - - - -
16/06:30pm 14.0 NNW 6 9 1006.8 - 3.4 - - - - - - -
16/06:00pm 14.6 WSW 2 4 1007.2 - 2.6 - - - - - - -
16/05:30pm 14.8 WNW 3 5 1006.9 - 2.4 - - - - - - -
16/05:00pm 14.9 WNW 4 7 1006.4 - 2.4 - - - - - - -
16/04:30pm 15.0 NNE 7 14 1005.5 - 2.4 - - - - - - -
16/04:00pm 15.0 NE 11 18 1004.9 - 2.4 - - - - - - -
16/03:30pm 16.3 N 10 16 1006.1 - 0.6 - - - - - - -
16/03:00pm 16.5 NE 8 13 1005.9 - 0.6 - - - - - - -
16/02:30pm 16.3 ENE 12 17 1005.8 - 0.6 - - - - - - -
16/02:00pm 16.2 ENE 15 23 1005.7 - 0.6 - - - - - - -
16/01:30pm 16.4 ENE 14 19 1006.1 - 0.6 - - - - - - -
16/01:00pm 15.7 ENE 12 19 1006.5 - 0.6 - - - - - - -
16/12:30pm 16.6 NE 8 14 1007.1 - 0.6 - - - - - - -
16/12:00pm 17.0 NNE 7 11 1007.8 - 0.6 - - - - - - -
16/11:30am 17.5 NNE 8 14 1008.3 - 0.6 - - - - - - -
16/11:00am 16.0 NE 5 8 1008.9 - 0.6 - - - - - - -
16/10:30am 14.7 NNE 5 8 1009.2 - 0.4 - - - - - - -
16/10:00am 14.5 NNE 8 11 1009.4 - 0.4 - - - - - - -
16/09:30am 14.4 NNE 11 14 1009.7 - 0.4 - - - - - - -
16/09:00am 14.3 NE 7 14 1009.8 - 2.4 - - - - - - -
16/08:30am 14.5 NE 7 12 1010.1 - 2.2 - - - - - - -
16/08:00am 14.1 NE 6 10 1009.8 - 2.2 - - - - - - -
16/07:30am 13.4 CALM 0 0 1009.8 - 2.2 - - - - - - -
16/07:00am 12.5 CALM 0 0 1010.0 - 2.2 - - - - - - -
16/06:30am 12.5 N 5 7 1010.2 - 2.2 - - - - - - -
16/06:00am 12.3 NNW 5 7 1010.5 - 2.2 - - - - - - -
16/05:30am 12.1 NW 4 5 1010.8 - 2.2 - - - - - - -
16/05:00am 11.9 WNW 3 5 1011.2 - 2.0 - - - - - - -
16/04:30am 11.6 NNW 2 4 1011.2 - 2.0 - - - - - - -
16/04:00am 10.8 CALM 0 0 1011.1 - 2.0 - - - - - - -
16/03:30am 11.5 NNW 4 4 1011.1 - 2.0 - - - - - - -
16/03:00am 11.3 CALM 0 0 1011.4 - 2.0 - - - - - - -
16/02:30am 11.7 NW 1 3 1011.8 - 2.0 - - - - - - -
16/02:00am 11.7 NW 1 3 1012.2 - 1.8 - - - - - - -
16/01:30am 11.6 NW 3 4 1012.5 - 1.8 - - - - - - -
16/01:00am 12.2 CALM 0 0 1013.0 - 1.8 - - - - - - -
16/12:30am 12.3 SSW 1 3 1013.5 - 1.8 - - - - - - -
16/12:00am 12.4 WSW 4 5 1013.9 - 1.6 - - - - - - -
 
Date/Time
EST
Temp

°C
Wind Pressure Rain
since 9am
mm
Weather Cloud Vis
km
Sea
Height
m
Swell
Dir
 
Speed
knots
Gust
knots
hPa Trend Height
m
Period
s
Dir
15/11:30pm 12.6 W 4 5 1014.2 - 1.0 - - - - - - -
15/11:00pm 12.8 CALM 0 0 1014.6 - 0.4 - - - - - - -
15/10:30pm 12.9 N 3 3 1014.9 - 0.4 - - - - - - -
15/10:00pm 12.9 N 3 4 1014.9 - 0.2 - - - - - - -
15/09:30pm 13.6 N 4 5 1015.1 - 0.0 - - - - - - -
15/09:00pm 13.9 NNE 5 7 1015.1 - 0.0 - - - - - - -
15/08:30pm 14.1 NNE 5 7 1015.1 - 0.0 - - - - - - -
15/08:00pm 14.3 NNE 6 9 1015.3 - 0.0 - - - - - - -
15/07:30pm 14.4 ENE 7 10 1015.3 - 0.0 - - - - - - -
15/07:00pm 14.3 NE 7 9 1015.2 - 0.0 - - - - - - -
15/06:30pm 14.1 ENE 6 10 1015.1 - 0.0 - - - - - - -
15/06:00pm 14.0 NE 4 6 1015.1 - 0.0 - - - - - - -
15/05:30pm 14.1 NE 6 10 1015.2 - 0.0 - - - - - - -
15/05:00pm 14.1 NE 7 11 1015.0 - 0.0 - - - - - - -
15/04:30pm 14.4 ENE 9 12 1014.9 - 0.0 - - - - - - -
15/04:00pm 14.4 E 8 11 1015.0 - 0.0 - - - - - - -
15/03:30pm 14.6 E 7 10 1015.2 - 0.0 - - - - - - -
15/03:00pm 14.6 E 7 9 1015.3 - 0.0 - - - - - - -
15/02:30pm 14.7 E 7 9 1015.2 - 0.0 - - - - - - -
15/02:00pm 14.9 ESE 6 9 1015.3 - 0.0 - - - - - - -
15/01:30pm 15.1 ESE 6 9 1015.4 - 0.0 - - - - - - -
15/01:00pm 15.5 ESE 6 8 1015.9 - 0.0 - - - - - - -
15/12:30pm 15.7 SE 7 9 1016.2 - 0.0 - - - - - - -
15/12:00pm 15.4 SE 7 10 1016.6 - 0.0 - - - - - - -
15/11:30am 15.4 SE 6 8 1016.9 - 0.0 - - - - - - -
15/11:00am 15.4 SE 6 8 1017.4 - 0.0 - - - - - - -
15/10:30am 15.4 SSE 5 6 1017.8 - 0.0 - - - - - - -
15/10:00am 15.8 SE 4 6 1017.9 - 0.0 - - - - - - -
15/09:30am 14.9 SE 4 6 1018.0 - 0.0 - - - - - - -
15/09:00am 14.5 NNW 4 6 1018.2 - 0.0 - - - - - - -
15/08:30am 12.9 NW 5 7 1018.2 - 0.0 - - - - - - -
15/08:00am 11.0 NW 6 8 1018.2 - 0.0 - - - - - - -
15/07:30am 9.9 NW 5 7 1018.0 - 0.0 - - - - - - -
15/07:00am 8.0 WNW 6 8 1017.7 - 0.0 - - - - - - -
15/06:30am 6.6 WNW 6 7 1017.5 - 0.0 - - - - - - -
15/06:00am 6.2 WNW 6 7 1017.6 - 0.0 - - - - - - -
15/05:30am 6.2 WNW 6 7 1017.5 - 0.0 - - - - - - -
15/05:00am 6.2 NW 6 7 1017.4 - 0.0 - - - - - - -
15/04:30am 6.1 NW 6 7 1017.5 - 0.0 - - - - - - -
15/04:00am 6.7 WNW 5 7 1017.5 - 0.0 - - - - - - -
15/03:30am 8.0 WNW 5 7 1017.6 - 0.0 - - - - - - -
15/03:00am 8.4 WNW 6 8 1017.7 - 0.0 - - - - - - -
15/02:30am 8.7 WNW 6 8 1018.0 - 0.0 - - - - - - -
15/02:00am 9.0 WNW 5 7 1018.1 - 0.0 - - - - - - -
15/01:30am 9.0 W 5 7 1018.3 - 0.0 - - - - - - -
15/01:00am 9.1 WNW 6 9 1018.5 - 0.0 - - - - - - -
15/12:30am 9.1 WNW 6 9 1018.4 - 0.0 - - - - - - -
15/12:00am 9.0 WNW 6 9 1018.7 - 0.0 - - - - - - -
 
Date/Time
EST
Temp

°C
Wind Pressure Rain
since 9am
mm
Weather Cloud Vis
km
Sea
Height
m
Swell
Dir
 
Speed
knots
Gust
knots
hPa Trend Height
m
Period
s
Dir
14/11:30pm 8.9 WNW 5 7 1019.0 - 0.0 - - - - - - -
14/11:00pm 9.8 WNW 6 8 1019.1 - 0.0 - - - - - - -
14/10:30pm 9.9 WNW 5 8 1019.2 - 0.0 - - - - - - -
14/10:00pm 9.9 NW 5 7 1019.3 - 0.0 - - - - - - -

Other Formats:

Comma delimited format used in spreadsheet applications
http://www.bom.gov.au/fwo/IDV60701/IDV60701.94935.axf

JavaScript Object Notation format (JSON) in row-major order
http://www.bom.gov.au/fwo/IDV60701/IDV60701.94935.json